createdAt,value
2023-05-24T00:02:32.977Z,75.60
2023-05-24T00:10:41.277Z,75.50
2023-05-24T00:18:47.250Z,75.50
2023-05-24T00:26:55.347Z,75.30
2023-05-24T00:35:00.694Z,75.00
2023-05-24T00:43:08.670Z,74.40
2023-05-24T00:51:15.458Z,74.60
2023-05-24T00:59:32.489Z,74.50
2023-05-24T01:07:52.709Z,74.60
2023-05-24T01:16:04.452Z,76.00
2023-05-24T01:24:25.759Z,77.60
2023-05-24T01:32:34.894Z,77.60
2023-05-24T01:40:41.785Z,77.50
2023-05-24T01:49:17.606Z,77.70
2023-05-24T01:57:25.753Z,77.70
2023-05-24T02:05:35.545Z,77.90
2023-05-24T02:13:44.606Z,77.80
2023-05-24T02:21:53.593Z,77.70
2023-05-24T02:29:59.045Z,77.30
2023-05-24T02:38:07.165Z,76.70
2023-05-24T02:46:12.643Z,77.30
2023-05-24T02:54:20.682Z,77.10
2023-05-24T03:02:28.932Z,76.50
2023-05-24T03:10:38.290Z,78.00
2023-05-24T03:18:45.534Z,78.30
2023-05-24T03:26:53.742Z,78.10
2023-05-24T03:35:01.019Z,77.70
2023-05-24T03:43:09.447Z,78.20
2023-05-24T03:51:29.906Z,77.60
2023-05-24T03:59:41.096Z,77.10
2023-05-24T04:07:46.893Z,77.00
2023-05-24T04:15:55.053Z,77.20
2023-05-24T04:24:01.709Z,77.50
2023-05-24T04:32:10.393Z,76.60
2023-05-24T04:40:16.569Z,74.90
2023-05-24T04:48:25.017Z,74.60
2023-05-24T04:56:30.575Z,73.10
2023-05-24T05:04:38.543Z,72.60
2023-05-24T05:12:44.889Z,69.10
2023-05-24T05:20:52.924Z,70.80
2023-05-24T05:28:58.420Z,70.10
2023-05-24T05:37:06.515Z,72.00
2023-05-24T05:45:12.712Z,69.10
2023-05-24T06:02:27.564Z,67.10
2023-05-24T06:10:33.136Z,70.40
2023-05-24T06:18:47.414Z,67.60
2023-05-24T06:27:00.101Z,65.90
2023-05-24T06:35:09.099Z,65.90
2023-05-24T06:43:14.513Z,62.80
2023-05-24T06:51:22.914Z,62.10
2023-05-24T06:59:28.424Z,59.70
2023-05-24T07:07:38.374Z,60.60
2023-05-24T07:15:44.954Z,59.30
2023-05-24T07:23:53.829Z,60.50
2023-05-24T07:31:59.401Z,59.00
2023-05-24T07:40:11.963Z,58.60
2023-05-24T07:48:17.265Z,57.40
2023-05-24T07:56:27.588Z,56.00
2023-05-24T08:04:33.210Z,55.20
2023-05-24T08:12:41.683Z,55.20
2023-05-24T08:20:47.293Z,54.50
2023-05-24T08:28:55.416Z,54.40
2023-05-24T08:37:02.142Z,53.50
2023-05-24T08:54:08.753Z,53.80
2023-05-24T09:02:34.289Z,54.40
2023-05-24T09:11:05.121Z,53.90
2023-05-24T09:19:14.413Z,53.20
2023-05-24T09:27:24.097Z,52.40
2023-05-24T09:35:31.533Z,52.40
2023-05-24T09:43:51.286Z,52.70
2023-05-24T09:51:58.246Z,47.30
2023-05-24T10:00:16.811Z,48.50
2023-05-24T10:08:22.770Z,49.10
2023-05-24T10:16:31.015Z,46.90
2023-05-24T10:24:40.285Z,48.80
2023-05-24T10:32:50.219Z,48.30
2023-05-24T10:40:58.472Z,48.00
2023-05-24T10:49:07.218Z,47.00
2023-05-24T10:57:12.823Z,47.20
2023-05-24T11:05:20.919Z,45.50
2023-05-24T11:13:30.309Z,46.00
2023-05-24T11:21:38.750Z,45.00
2023-05-24T11:29:45.504Z,44.00
2023-05-24T11:37:54.222Z,43.80
2023-05-24T11:45:59.934Z,44.20
2023-05-24T11:54:08.261Z,39.50
2023-05-24T12:02:13.705Z,34.70
2023-05-24T12:10:22.982Z,37.60
2023-05-24T12:18:29.897Z,39.60
2023-05-24T12:26:38.425Z,42.10
2023-05-24T12:34:45.289Z,46.10
2023-05-24T12:42:54.901Z,46.70
2023-05-24T12:51:00.416Z,38.10
2023-05-24T12:59:08.657Z,33.60
2023-05-24T13:07:14.299Z,31.10
2023-05-24T13:15:24.339Z,31.80
2023-05-24T13:23:30.096Z,34.40
2023-05-24T13:31:38.513Z,36.60
2023-05-24T13:39:44.139Z,38.50
2023-05-24T13:47:52.352Z,40.20
2023-05-24T13:55:57.944Z,41.50
2023-05-24T14:04:06.798Z,43.40
2023-05-24T14:12:14.075Z,44.80
2023-05-24T14:20:22.952Z,46.50
2023-05-24T14:28:28.693Z,47.40
2023-05-24T14:36:37.811Z,48.50
2023-05-24T14:44:43.259Z,50.00
2023-05-24T14:52:54.327Z,51.10
2023-05-24T15:01:00.924Z,51.70
2023-05-24T15:09:09.961Z,52.90
2023-05-24T15:17:15.946Z,55.70
2023-05-24T15:25:24.168Z,56.20
2023-05-24T15:33:29.621Z,57.10
2023-05-24T15:41:38.621Z,57.30
2023-05-24T15:49:44.230Z,57.30
2023-05-24T15:57:52.224Z,58.90
2023-05-24T16:05:57.779Z,59.10
2023-05-24T16:14:06.548Z,58.80
2023-05-24T16:22:12.328Z,59.00
2023-05-24T16:30:20.516Z,59.00
2023-05-24T16:38:26.278Z,59.10
2023-05-24T16:46:34.396Z,59.70
2023-05-24T16:54:39.887Z,60.00
2023-05-24T17:02:49.020Z,60.10
2023-05-24T17:10:56.391Z,61.10
2023-05-24T17:19:06.038Z,61.40
2023-05-24T17:27:11.485Z,61.80
2023-05-24T17:35:19.878Z,62.30
2023-05-24T17:43:29.019Z,62.70
2023-05-24T17:51:39.143Z,63.10
2023-05-24T17:59:44.571Z,64.00
2023-05-24T18:07:52.610Z,64.30
2023-05-24T18:15:58.029Z,65.00
2023-05-24T18:24:06.186Z,65.30
2023-05-24T18:32:11.809Z,64.60
2023-05-24T18:40:21.492Z,63.80
2023-05-24T18:48:26.895Z,63.50
2023-05-24T18:56:34.955Z,62.40
2023-05-24T19:04:40.386Z,62.60
2023-05-24T19:12:48.467Z,62.60
2023-05-24T19:20:53.906Z,62.40
2023-05-24T19:29:02.352Z,62.40
2023-05-24T19:37:08.127Z,62.70
2023-05-24T19:45:16.691Z,63.00
2023-05-24T19:53:22.333Z,64.30
2023-05-24T20:01:30.672Z,65.80
2023-05-24T20:09:36.215Z,66.80
2023-05-24T20:17:45.657Z,67.80
2023-05-24T20:25:51.277Z,68.90
2023-05-24T20:33:59.324Z,69.90
2023-05-24T20:42:04.928Z,70.70
2023-05-24T20:50:17.064Z,71.40
2023-05-24T20:58:22.492Z,71.70
2023-05-24T21:06:32.571Z,71.70
2023-05-24T21:14:39.526Z,71.80
2023-05-24T21:22:47.632Z,71.60
2023-05-24T21:30:53.207Z,71.00
2023-05-24T21:39:04.101Z,71.80
2023-05-24T21:47:09.608Z,71.60
2023-05-24T21:55:18.654Z,71.60
2023-05-24T22:03:24.181Z,72.00
2023-05-24T22:11:33.305Z,72.40
2023-05-24T22:19:41.505Z,72.30
2023-05-24T22:27:50.184Z,73.20
2023-05-24T22:35:55.562Z,74.00
2023-05-24T22:44:03.617Z,74.10
2023-05-24T22:52:09.193Z,74.20
2023-05-24T23:00:18.414Z,74.40
2023-05-24T23:08:26.246Z,74.30
2023-05-24T23:16:40.128Z,74.80
2023-05-24T23:24:46.524Z,75.90
2023-05-24T23:32:54.563Z,76.30
2023-05-24T23:41:00.128Z,76.80
2023-05-24T23:49:08.147Z,77.60
2023-05-24T23:57:13.587Z,78.10
